Hosin, República Checa

6:58 AM CET en Marzo 06, 2015 (GMT +0100)
Trhové Sviny | Change Station
CLOSE
Current Station
Estación meteorológica personal
Location: Trhové Sviny, JIHOčESKý KRAJ
Altura: 1512 ft
Estaciones meteorológicas cercanas

Alt 1512 ft 48.84 °N, 14.64 °E | Updated 3 minutes ago

Mostly Cloudy
Muy nublado
32.5 ° F
Sensación térmica 32 ° F
N
1.7
Viento Variable Viento desde ESE
Gusts 3.1 mph

Hoy
Alta -- | Baja -- ° F
--% Posibilidad de precipitaciones
Ayer
Alta -- | Baja -- ° F
Precip. -- pul
6:35 AM 5:52 PM
Luna llena, 100% visible
Presión 30.57 pul
Visibilidad 6.2 Millas
Nubes Baja 3200 ft
Muy nublado 8000 ft
Vientos helados 32 ° F
Punto de rocío 25 ° F
Humedad 74%
Precipitaciones pul
Espesor de la nieve No disponible.
UV 0 de una escala de 12
Polen No disponible.
Calidad del aire No disponible.
Flu Activity No disponible.
METAR LOWL 060550Z 22005KT 9999 FEW032 BKN080 M00/M02 Q1035 NOSIG

More Conditions Fewer Conditions

Presión 30.57 pul
Visibilidad 6.2 Millas
Nubes Baja 3200 ft
Muy nublado 8000 ft
Vientos helados 32 ° F
Punto de rocío 25 ° F
Humedad 74%
Precipitaciones pul
Espesor de la nieve No disponible.
UV 0 de una escala de 12
Polen No disponible.
Calidad del aire No disponible.
Flu Activity No disponible.
METAR LOWL 060550Z 22005KT 9999 FEW032 BKN080 M00/M02 Q1035 NOSIG

More Conditions Fewer Conditions

10-Day Weather Forecast

Almanac

Astronomía

Mar. 06, 2015 Salida Puesta
Hora real
Crepúsculo civil
Crepúsculo náutico
Crepúsculo astronómico
Luna
Horas de luz
Horas de luz
Tomorrow will be .
, % of the Moon is Illuminated

Extremos de hoy

Máximos del país Bajas del país

Community

WunderPhotos

Upload Photos

1,803,207 ¡fotos cargadas!

WunderBlogs® & News

Nearby

Calidad del aire

  Calidad del aire Índice AQ Contaminante
Not available.

Grosos de nieve

Estación Profundido Altura

Actividad de terremotos

Ciudad Distance Mag. Tiempo y dato
Magnitud mínima muestra es 2,5.

Temperaturas de aguas costeras

Lugar Temperatura

Estaciones meteorológicas cercanas